Time;durP1;ratioP1;P1;durP2;ratioP2;P2;SDS_P1;SDS_P2;PMS_P1;PMS_P2;Temp;Humidity;BMP_temperature;BMP_pressure;BME280_temperature;BME280_humidity;BME280_pressure;Samples;Min_cycle;Max_cycle;Signal;HPM_P1;HPM_P2
2022/07/17 00:00:53;;;;;;;3.78;3.47;;;23.10;45.00;;;;;;4976473;28;20233;-70
2022/07/17 00:03:21;;;;;;;3.92;3.05;;;23.10;45.00;;;;;;4976968;28;20197;-70
2022/07/17 00:05:48;;;;;;;3.50;3.20;;;23.10;45.10;;;;;;4993837;28;20215;-70
2022/07/17 00:08:15;;;;;;;4.40;3.40;;;23.00;45.10;;;;;;4976514;28;20220;-71
2022/07/17 00:10:43;;;;;;;4.20;2.97;;;23.10;45.10;;;;;;4976593;28;20221;-72
2022/07/17 00:13:10;;;;;;;3.90;3.50;;;23.00;45.10;;;;;;4976336;28;20208;-71
2022/07/17 00:15:37;;;;;;;3.50;3.20;;;23.00;45.10;;;;;;4976434;28;20198;-71
2022/07/17 00:18:06;;;;;;;3.40;3.10;;;23.00;45.30;;;;;;4976285;28;20198;-71
2022/07/17 00:20:33;;;;;;;3.50;3.20;;;23.00;45.20;;;;;;4976463;28;20201;-71
2022/07/17 00:23:00;;;;;;;3.10;2.90;;;23.00;45.20;;;;;;4976374;28;20212;-71
2022/07/17 00:25:27;;;;;;;3.92;3.35;;;23.00;45.20;;;;;;4976232;28;20217;-72
2022/07/17 00:27:56;;;;;;;4.00;3.30;;;23.00;45.20;;;;;;4976267;28;20670;-71
2022/07/17 00:30:23;;;;;;;3.72;3.42;;;22.90;45.20;;;;;;4976020;28;20623;-72
2022/07/17 00:32:50;;;;;;;5.57;3.58;;;22.90;45.20;;;;;;4976243;28;20593;-71
2022/07/17 00:35:17;;;;;;;3.30;3.00;;;22.90;45.30;;;;;;4976107;28;20204;-71
2022/07/17 00:37:45;;;;;;;3.70;3.40;;;22.90;45.30;;;;;;4976114;28;20667;-71
2022/07/17 00:40:13;;;;;;;3.75;3.42;;;22.90;45.40;;;;;;4976137;28;20205;-71
2022/07/17 00:42:41;;;;;;;4.07;3.50;;;22.90;45.40;;;;;;4976209;28;20599;-71
2022/07/17 00:45:10;;;;;;;3.67;3.38;;;22.90;45.40;;;;;;4976076;28;20304;-71
2022/07/17 00:47:44;;;;;;;3.40;3.10;;;22.90;45.40;;;;;;4976222;28;20204;-71
2022/07/17 00:50:11;;;;;;;3.75;3.22;;;22.80;45.40;;;;;;4979221;28;20198;-71
2022/07/17 00:52:38;;;;;;;3.65;3.35;;;22.80;45.30;;;;;;4979648;28;20237;-71
2022/07/17 00:55:06;;;;;;;3.70;3.40;;;22.80;45.40;;;;;;4979685;28;20194;-71
2022/07/17 00:57:33;;;;;;;3.40;3.10;;;22.80;45.50;;;;;;4979844;28;20225;-71
2022/07/17 01:00:00;;;;;;;3.92;3.53;;;22.80;45.50;;;;;;4981446;28;20201;-71
2022/07/17 01:02:28;;;;;;;4.93;3.50;;;22.80;45.50;;;;;;4979947;28;20231;-71
2022/07/17 01:04:55;;;;;;;3.28;3.08;;;22.80;45.50;;;;;;4997208;28;20209;-71
2022/07/17 01:07:22;;;;;;;3.90;3.30;;;22.70;45.50;;;;;;4979434;28;20284;-71
2022/07/17 01:09:49;;;;;;;4.07;3.33;;;22.70;45.50;;;;;;4997075;28;20189;-71
2022/07/17 01:12:16;;;;;;;3.72;3.42;;;22.70;45.50;;;;;;4979408;28;20285;-71
2022/07/17 01:14:43;;;;;;;3.40;3.10;;;22.70;45.60;;;;;;4996657;28;20186;-71
2022/07/17 01:17:10;;;;;;;4.55;3.45;;;22.70;45.60;;;;;;4979199;28;20252;-71
2022/07/17 01:19:38;;;;;;;4.03;3.35;;;22.60;45.50;;;;;;4979578;28;20202;-71
2022/07/17 01:22:07;;;;;;;3.53;3.22;;;22.70;45.70;;;;;;4979187;28;20221;-71
2022/07/17 01:24:34;;;;;;;3.80;3.50;;;22.60;45.60;;;;;;4979035;28;20576;-71
2022/07/17 01:27:01;;;;;;;3.80;3.13;;;22.60;45.60;;;;;;4979012;28;20201;-71
2022/07/17 01:29:28;;;;;;;3.53;3.22;;;22.60;45.60;;;;;;4979027;28;20626;-71
2022/07/17 01:31:55;;;;;;;4.35;3.60;;;22.60;45.60;;;;;;4979161;28;20625;-71
2022/07/17 01:34:22;;;;;;;3.50;3.20;;;22.60;45.60;;;;;;4996865;28;20247;-71
2022/07/17 01:36:50;;;;;;;3.60;3.30;;;22.60;45.70;;;;;;4979067;28;20200;-71
2022/07/17 01:39:52;;;;;;;3.60;3.30;;;22.50;45.60;;;;;;4978855;28;20288;-71
2022/07/17 01:42:06;;;;;;;3.38;3.05;;;22.50;45.60;;;;;;4978630;28;20301;-71
2022/07/17 01:44:33;;;;;;;3.55;3.25;;;22.50;45.70;;;;;;4978547;28;20674;-71
2022/07/17 01:47:00;;;;;;;3.50;3.20;;;22.50;45.70;;;;;;4996040;28;20194;-71
2022/07/17 01:49:27;;;;;;;4.50;3.45;;;22.50;45.70;;;;;;4978633;28;20581;-71
2022/07/17 01:51:59;;;;;;;3.60;3.30;;;22.50;45.70;;;;;;4978510;28;20260;-71
2022/07/17 01:54:27;;;;;;;3.63;3.33;;;22.50;45.80;;;;;;4978570;28;20201;-71
2022/07/17 01:56:54;;;;;;;3.45;3.20;;;22.50;45.80;;;;;;4978641;28;20280;-71
2022/07/17 01:59:21;;;;;;;3.80;3.40;;;22.50;45.90;;;;;;4978590;28;20587;-71
2022/07/17 02:01:48;;;;;;;3.47;3.17;;;22.50;45.80;;;;;;4996140;28;20221;-71
2022/07/17 02:04:15;;;;;;;4.00;3.30;;;22.40;45.80;;;;;;4978726;28;20236;-71
2022/07/17 02:06:42;;;;;;;3.50;3.20;;;22.40;45.80;;;;;;4979342;28;20236;-71
2022/07/17 02:09:09;;;;;;;3.22;3.00;;;22.40;45.90;;;;;;4996236;28;20193;-71
2022/07/17 02:11:38;;;;;;;3.30;3.00;;;22.40;45.90;;;;;;4995724;28;20213;-71
2022/07/17 02:14:05;;;;;;;3.95;3.08;;;22.40;45.90;;;;;;4978253;28;20737;-71
2022/07/17 02:16:32;;;;;;;4.50;3.17;;;22.40;45.90;;;;;;4995394;28;20189;-71
2022/07/17 02:18:59;;;;;;;3.70;3.40;;;22.40;45.90;;;;;;4977974;28;20313;-71
2022/07/17 02:21:27;;;;;;;3.85;3.22;;;22.30;45.80;;;;;;4977949;28;20214;-71
2022/07/17 02:23:54;;;;;;;3.33;3.03;;;22.30;45.90;;;;;;4977823;28;20205;-71
2022/07/17 02:26:21;;;;;;;3.78;3.08;;;22.30;46.00;;;;;;4977735;28;20225;-71
2022/07/17 02:28:49;;;;;;;3.60;3.30;;;22.30;46.40;;;;;;4977793;28;20201;-71
2022/07/17 02:31:16;;;;;;;3.22;2.92;;;22.30;46.00;;;;;;4977987;28;20221;-71
2022/07/17 02:33:43;;;;;;;3.33;3.05;;;22.30;46.00;;;;;;4977685;28;20197;-71
2022/07/17 02:36:10;;;;;;;3.03;2.75;;;22.30;46.00;;;;;;4977530;28;20549;-71
2022/07/17 02:38:37;;;;;;;3.50;3.20;;;22.30;46.00;;;;;;4977940;28;20204;-71
2022/07/17 02:41:05;;;;;;;3.83;2.90;;;22.30;46.00;;;;;;4995197;28;20214;-71
2022/07/17 02:43:32;;;;;;;3.60;3.30;;;22.30;46.10;;;;;;4995160;28;20193;-71
2022/07/17 02:46:00;;;;;;;3.45;3.10;;;22.20;46.00;;;;;;4995046;28;20758;-71
2022/07/17 02:48:28;;;;;;;3.42;3.13;;;22.20;46.00;;;;;;4994858;28;20654;-71
2022/07/17 02:50:55;;;;;;;3.65;3.35;;;22.20;46.70;;;;;;4994818;28;20217;-72
2022/07/17 02:53:22;;;;;;;3.22;2.92;;;22.20;46.10;;;;;;4977705;28;20205;-71
2022/07/17 02:55:49;;;;;;;3.72;3.25;;;22.20;46.10;;;;;;4994709;28;20762;-71
2022/07/17 02:58:16;;;;;;;3.53;2.92;;;22.20;46.20;;;;;;5195408;22;20221;-71
2022/07/17 03:00:43;;;;;;;3.92;3.30;;;22.20;46.20;;;;;;4994705;28;20194;-72
2022/07/17 03:03:12;;;;;;;3.72;3.28;;;22.20;46.20;;;;;;4994783;28;20194;-72
2022/07/17 03:05:38;;;;;;;4.25;3.50;;;22.10;46.20;;;;;;4977081;28;20221;-72
2022/07/17 03:08:06;;;;;;;3.35;3.05;;;22.10;46.20;;;;;;4976983;28;20221;-72
2022/07/17 03:10:33;;;;;;;3.30;3.00;;;22.10;46.10;;;;;;4976992;28;20236;-72
2022/07/17 03:13:00;;;;;;;4.18;3.47;;;22.10;46.20;;;;;;4976636;28;20194;-72
2022/07/17 03:15:27;;;;;;;3.58;3.28;;;22.10;46.20;;;;;;4976897;28;20193;-72
2022/07/17 03:17:54;;;;;;;3.60;3.30;;;22.10;46.00;;;;;;4976839;28;20304;-72
2022/07/17 03:20:22;;;;;;;4.03;3.60;;;22.10;46.00;;;;;;4994560;28;20200;-72
2022/07/17 03:22:49;;;;;;;3.72;3.40;;;22.10;45.90;;;;;;4977015;28;20646;-72
2022/07/17 03:25:16;;;;;;;3.78;3.38;;;22.10;45.90;;;;;;4994117;28;20205;-72
2022/07/17 03:27:43;;;;;;;3.90;3.60;;;22.10;46.00;;;;;;4976825;28;20217;-72
2022/07/17 03:30:10;;;;;;;4.95;3.53;;;22.20;46.00;;;;;;4994139;28;20193;-72
2022/07/17 03:32:37;;;;;;;4.18;3.67;;;22.20;46.00;;;;;;4976693;28;20190;-72
2022/07/17 03:35:07;;;;;;;4.07;3.67;;;22.20;45.80;;;;;;4976655;28;20386;-72
2022/07/17 03:37:37;;;;;;;3.92;3.53;;;22.30;45.70;;;;;;4993973;28;20209;-72
2022/07/17 03:40:06;;;;;;;4.00;3.60;;;22.30;45.60;;;;;;4976878;28;20282;-72
2022/07/17 03:42:33;;;;;;;3.70;3.40;;;22.30;45.50;;;;;;4994246;28;20289;-72
2022/07/17 03:45:00;;;;;;;3.95;3.55;;;22.40;45.50;;;;;;4994063;28;20239;-72
2022/07/17 03:47:27;;;;;;;4.47;3.70;;;22.40;45.40;;;;;;4976556;28;20221;-72
2022/07/17 03:49:54;;;;;;;4.47;4.00;;;22.40;45.40;;;;;;4976577;28;20204;-72
2022/07/17 03:52:21;;;;;;;4.40;3.75;;;22.40;45.50;;;;;;4976528;28;20197;-72
2022/07/17 03:54:50;;;;;;;4.50;3.85;;;22.50;45.50;;;;;;4976504;28;20321;-72
2022/07/17 03:57:17;;;;;;;3.92;3.63;;;22.50;45.30;;;;;;4993684;28;20216;-71
2022/07/17 03:59:44;;;;;;;4.00;3.58;;;22.50;45.40;;;;;;4976592;28;20202;-72
2022/07/17 04:02:11;;;;;;;4.03;3.63;;;22.50;46.00;;;;;;4976514;28;20704;-72
2022/07/17 04:04:37;;;;;;;4.28;3.88;;;22.50;45.10;;;;;;4993909;28;20201;-72
2022/07/17 04:07:05;;;;;;;4.03;3.67;;;22.60;45.20;;;;;;4976279;28;20271;-72
2022/07/17 04:09:31;;;;;;;4.10;3.72;;;22.60;45.20;;;;;;4976424;28;20201;-72
2022/07/17 04:12:00;;;;;;;4.20;3.58;;;22.60;45.20;;;;;;4976470;28;20197;-72
2022/07/17 04:14:27;;;;;;;5.43;4.13;;;22.60;45.10;;;;;;4976470;28;20201;-72
2022/07/17 04:16:54;;;;;;;4.28;3.83;;;22.60;45.20;;;;;;4976635;28;20284;-72
2022/07/17 04:19:21;;;;;;;4.15;3.72;;;22.60;45.10;;;;;;4977294;28;20198;-72
2022/07/17 04:21:48;;;;;;;4.28;3.88;;;22.60;45.10;;;;;;4976646;28;20201;-72
2022/07/17 04:24:15;;;;;;;4.35;3.97;;;22.60;45.10;;;;;;4978287;28;20256;-72
2022/07/17 04:26:42;;;;;;;3.92;3.63;;;22.60;45.10;;;;;;4997997;28;20210;-72
2022/07/17 04:29:11;;;;;;;4.57;3.78;;;22.60;45.20;;;;;;4998122;28;20215;-72
2022/07/17 04:31:38;;;;;;;4.78;4.38;;;22.60;45.20;;;;;;4980120;28;20224;-72
2022/07/17 04:34:05;;;;;;;6.40;4.38;;;22.50;45.20;;;;;;4980249;28;20638;-72
2022/07/17 04:36:32;;;;;;;4.57;4.03;;;22.50;45.20;;;;;;4979839;28;20194;-72
2022/07/17 04:39:00;;;;;;;4.28;3.80;;;22.50;45.30;;;;;;4979811;28;20312;-72
2022/07/17 04:41:26;;;;;;;5.35;3.97;;;22.50;45.40;;;;;;4979819;28;20673;-71
2022/07/17 04:43:54;;;;;;;4.35;3.83;;;22.50;45.40;;;;;;4979750;28;20197;-72
2022/07/17 04:46:22;;;;;;;4.22;3.83;;;22.50;45.40;;;;;;4979563;28;20260;-72
2022/07/17 04:48:49;;;;;;;4.20;3.80;;;22.50;45.50;;;;;;4979577;28;20221;-71
2022/07/17 04:51:16;;;;;;;4.20;3.80;;;22.60;45.50;;;;;;4979599;28;20590;-72
2022/07/17 04:53:43;;;;;;;4.20;3.90;;;22.80;45.40;;;;;;4979420;28;20276;-72
2022/07/17 04:56:10;;;;;;;4.35;3.90;;;23.00;45.00;;;;;;4979498;28;20197;-72
2022/07/17 04:58:38;;;;;;;4.32;3.67;;;23.20;44.60;;;;;;4996732;28;20644;-72
2022/07/17 05:01:05;;;;;;;4.07;3.67;;;23.40;44.10;;;;;;4979424;28;20205;-72
2022/07/17 05:03:33;;;;;;;4.80;4.28;;;23.70;43.90;;;;;;4979407;28;20201;-72
2022/07/17 05:06:00;;;;;;;4.57;3.90;;;23.80;43.50;;;;;;4979238;28;20288;-72
2022/07/17 05:08:27;;;;;;;4.30;3.47;;;24.00;43.10;;;;;;4979178;28;20220;-72
2022/07/17 05:10:54;;;;;;;4.00;3.50;;;24.20;42.90;;;;;;4979163;28;20248;-72
2022/07/17 05:13:21;;;;;;;4.30;3.90;;;24.40;42.70;;;;;;4979100;28;20204;-73
2022/07/17 05:15:49;;;;;;;4.05;3.65;;;24.50;42.40;;;;;;4979195;28;20201;-73
2022/07/17 05:18:16;;;;;;;4.40;4.00;;;24.70;42.20;;;;;;4978971;28;20713;-72
2022/07/17 05:20:44;;;;;;;3.92;3.63;;;24.80;41.90;;;;;;4996657;28;20224;-72
2022/07/17 05:23:12;;;;;;;4.15;3.60;;;24.90;41.70;;;;;;4979954;28;20205;-72
2022/07/17 05:25:39;;;;;;;4.53;4.13;;;25.00;41.40;;;;;;4979008;28;20197;-73
2022/07/17 05:28:05;;;;;;;4.38;3.80;;;25.10;41.30;;;;;;4978942;28;20252;-73
2022/07/17 05:30:32;;;;;;;5.15;4.05;;;25.20;41.10;;;;;;4978919;28;20296;-73
2022/07/17 05:32:59;;;;;;;4.50;3.97;;;25.30;40.80;;;;;;4978819;28;20220;-72
2022/07/17 05:35:26;;;;;;;4.20;3.80;;;25.40;40.90;;;;;;4978390;28;20682;-72
2022/07/17 05:37:54;;;;;;;4.40;3.95;;;25.50;40.60;;;;;;4978722;28;20224;-73
2022/07/17 05:40:21;;;;;;;3.97;3.58;;;25.60;40.50;;;;;;4978699;28;20197;-72
2022/07/17 05:42:48;;;;;;;4.50;4.07;;;25.70;40.30;;;;;;4978607;28;20197;-72
2022/07/17 05:45:16;;;;;;;4.00;3.60;;;25.80;40.20;;;;;;4978629;28;20658;-72
2022/07/17 05:47:43;;;;;;;4.28;3.88;;;25.90;40.10;;;;;;4978419;28;20256;-72
2022/07/17 05:50:10;;;;;;;4.47;3.55;;;25.90;39.90;;;;;;4978346;28;20204;-72
2022/07/17 05:52:37;;;;;;;3.75;3.45;;;26.00;39.80;;;;;;4978352;28;20224;-72
2022/07/17 05:55:06;;;;;;;3.65;3.35;;;26.10;39.80;;;;;;4978331;28;20240;-72
2022/07/17 05:57:34;;;;;;;4.18;3.60;;;26.20;39.60;;;;;;4995821;28;20340;-71
2022/07/17 06:00:00;;;;;;;4.18;3.78;;;26.30;39.50;;;;;;4978513;28;20209;-72
2022/07/17 06:02:27;;;;;;;4.25;3.85;;;26.30;39.20;;;;;;4978426;28;20228;-72
2022/07/17 06:04:54;;;;;;;3.83;3.50;;;26.40;39.20;;;;;;4995712;28;20666;-72
2022/07/17 06:07:21;;;;;;;4.72;3.92;;;26.50;39.10;;;;;;4978094;28;20229;-73
2022/07/17 06:09:48;;;;;;;3.83;3.53;;;26.60;39.00;;;;;;4978200;28;20212;-72
2022/07/17 06:12:17;;;;;;;4.10;3.60;;;26.60;38.80;;;;;;4978430;28;20202;-73
2022/07/17 06:14:44;;;;;;;4.47;3.53;;;26.70;38.70;;;;;;4978215;28;20193;-72
2022/07/17 06:17:11;;;;;;;4.10;3.58;;;26.80;38.60;;;;;;4978039;28;20224;-72
2022/07/17 06:19:38;;;;;;;5.30;3.83;;;26.90;38.50;;;;;;4977969;28;20292;-72
2022/07/17 06:22:05;;;;;;;3.85;3.53;;;27.00;38.40;;;;;;4978239;28;20208;-72
2022/07/17 06:24:32;;;;;;;3.88;3.50;;;27.00;38.20;;;;;;4978117;28;20741;-72
2022/07/17 06:26:59;;;;;;;4.82;3.63;;;27.10;38.10;;;;;;4978011;28;20220;-72
2022/07/17 06:29:27;;;;;;;3.97;3.55;;;27.10;37.90;;;;;;4995599;28;20768;-72
2022/07/17 06:31:54;;;;;;;4.00;3.70;;;27.20;37.90;;;;;;4979403;28;20198;-72
2022/07/17 06:34:21;;;;;;;3.70;3.40;;;27.20;37.80;;;;;;4978218;28;20206;-72
2022/07/17 06:36:48;;;;;;;3.67;3.38;;;27.30;37.70;;;;;;4977779;28;20193;-73
2022/07/17 06:39:15;;;;;;;4.13;3.65;;;27.30;37.60;;;;;;4977704;28;20201;-72
2022/07/17 06:41:44;;;;;;;3.78;3.40;;;27.40;37.50;;;;;;4977537;28;20552;-72
2022/07/17 06:44:10;;;;;;;4.43;3.55;;;27.40;37.40;;;;;;4977578;28;20198;-72
2022/07/17 06:46:39;;;;;;;4.00;3.30;;;27.40;37.40;;;;;;4976742;28;20217;-72
2022/07/17 06:49:05;;;;;;;4.43;3.63;;;27.50;37.30;;;;;;4994851;28;20276;-72
2022/07/17 06:51:32;;;;;;;3.88;3.58;;;27.50;37.20;;;;;;4977497;28;20674;-72
2022/07/17 06:53:59;;;;;;;3.90;3.50;;;27.60;37.20;;;;;;4977471;28;20632;-73
2022/07/17 06:56:26;;;;;;;3.95;3.40;;;27.60;37.10;;;;;;4994664;28;20201;-73
2022/07/17 06:58:53;;;;;;;3.70;3.40;;;27.60;37.00;;;;;;4976973;28;20228;-72
2022/07/17 07:01:20;;;;;;;3.65;3.30;;;27.60;36.90;;;;;;4977473;28;20224;-73
2022/07/17 07:03:49;;;;;;;3.88;3.40;;;27.70;36.90;;;;;;4977166;28;20295;-73
2022/07/17 07:06:16;;;;;;;3.40;3.10;;;27.70;36.80;;;;;;4977647;28;20198;-72
2022/07/17 07:08:43;;;;;;;3.67;3.38;;;27.80;36.80;;;;;;4976912;28;20311;-72
2022/07/17 07:11:10;;;;;;;3.78;3.22;;;27.80;36.70;;;;;;4976934;28;20634;-72
2022/07/17 07:13:37;;;;;;;3.65;3.22;;;27.80;36.60;;;;;;5008878;23;20193;-68
2022/07/17 07:16:04;;;;;;;3.70;3.40;;;27.80;37.20;;;;;;5006018;22;20229;-73
2022/07/17 07:18:31;;;;;;;3.72;3.40;;;27.80;36.30;;;;;;5047624;23;20247;-73
2022/07/17 07:21:00;;;;;;;3.67;3.10;;;27.60;36.10;;;;;;5107112;22;20243;-73
2022/07/17 07:23:27;;;;;;;5.53;3.22;;;27.40;36.50;;;;;;4976715;28;20671;-73
2022/07/17 07:25:54;;;;;;;4.15;2.97;;;27.30;36.10;;;;;;5148598;22;20235;-73
2022/07/17 07:28:21;;;;;;;3.50;3.20;;;27.30;36.50;;;;;;5155163;22;20210;-72
2022/07/17 07:30:48;;;;;;;4.05;3.20;;;27.30;36.40;;;;;;4976308;28;20209;-73
2022/07/17 07:33:16;;;;;;;4.15;3.00;;;27.30;37.20;;;;;;4975981;28;20211;-72
2022/07/17 07:35:42;;;;;;;4.00;3.70;;;27.20;37.00;;;;;;4976402;28;20228;-72
2022/07/17 07:38:11;;;;;;;3.45;3.15;;;27.30;36.00;;;;;;5150961;23;20253;-72
2022/07/17 07:40:38;;;;;;;4.22;3.00;;;27.30;36.50;;;;;;4976137;28;20201;-73
2022/07/17 07:43:05;;;;;;;3.72;2.67;;;27.30;36.50;;;;;;4976437;28;20627;-72
2022/07/17 07:45:32;;;;;;;3.47;3.17;;;27.20;36.60;;;;;;5154542;22;20243;-73
2022/07/17 07:47:59;;;;;;;3.60;3.30;;;27.20;36.50;;;;;;4993530;28;20221;-73
2022/07/17 07:50:26;;;;;;;3.40;3.10;;;27.10;36.70;;;;;;4993913;28;20212;-72
2022/07/17 07:52:53;;;;;;;5.13;3.47;;;27.10;37.20;;;;;;4976522;28;20188;-73
2022/07/17 07:55:22;;;;;;;3.58;3.00;;;27.20;37.20;;;;;;4990861;23;20336;-69
2022/07/17 07:57:49;;;;;;;3.50;3.20;;;27.20;37.30;;;;;;4977509;28;20208;-69
2022/07/17 08:00:16;;;;;;;3.90;2.92;;;27.20;37.30;;;;;;5061205;22;20344;-72
2022/07/17 08:02:42;;;;;;;3.88;2.72;;;27.20;37.50;;;;;;4998177;28;20205;-73
2022/07/17 08:05:09;;;;;;;3.75;2.80;;;27.30;36.30;;;;;;4980289;28;20197;-72
2022/07/17 08:07:36;;;;;;;3.15;2.55;;;27.30;36.40;;;;;;4997633;28;20240;-73
2022/07/17 08:10:04;;;;;;;3.00;2.70;;;27.30;36.10;;;;;;4997765;28;20189;-72
2022/07/17 08:12:32;;;;;;;2.78;2.42;;;27.30;35.90;;;;;;4997650;28;20201;-73
2022/07/17 08:14:59;;;;;;;2.50;2.30;;;27.40;35.40;;;;;;5018400;23;20247;-72
2022/07/17 08:17:27;;;;;;;3.17;2.58;;;27.30;35.10;;;;;;4980039;28;20217;-73
2022/07/17 08:19:54;;;;;;;2.90;2.60;;;27.30;35.10;;;;;;4979804;28;20243;-73
2022/07/17 08:22:20;;;;;;;2.42;2.22;;;27.40;35.00;;;;;;4979684;28;20211;-72
2022/07/17 08:24:48;;;;;;;3.75;2.40;;;27.60;36.10;;;;;;5156727;22;20266;-72
2022/07/17 08:27:14;;;;;;;7.40;3.22;;;27.50;34.90;;;;;;4979739;28;20228;-73
2022/07/17 08:29:43;;;;;;;3.17;2.70;;;27.50;35.20;;;;;;4979906;28;20291;-73
2022/07/17 08:32:10;;;;;;;3.42;2.70;;;27.50;35.60;;;;;;4979882;28;20276;-73
2022/07/17 08:34:37;;;;;;;2.90;2.60;;;27.50;35.20;;;;;;4979740;28;20197;-73
2022/07/17 08:37:04;;;;;;;4.00;2.40;;;27.40;34.80;;;;;;4979700;28;20587;-73
2022/07/17 08:39:30;;;;;;;2.47;2.28;;;27.50;35.30;;;;;;4979916;28;20215;-73
2022/07/17 08:41:57;;;;;;;3.75;2.40;;;27.60;35.20;;;;;;4979671;28;20197;-73
2022/07/17 08:44:24;;;;;;;2.67;2.47;;;27.50;35.20;;;;;;4981086;28;20236;-73
2022/07/17 08:46:52;;;;;;;2.60;2.30;;;27.50;35.60;;;;;;4997133;28;20203;-74
2022/07/17 08:49:21;;;;;;;2.58;2.25;;;27.60;35.40;;;;;;4981462;28;20201;-73
2022/07/17 08:51:48;;;;;;;3.00;2.17;;;27.50;35.40;;;;;;4980381;28;20204;-72
2022/07/17 08:54:16;;;;;;;2.72;2.17;;;27.50;35.30;;;;;;4979788;28;20649;-72
2022/07/17 08:56:44;;;;;;;2.72;2.30;;;27.50;35.40;;;;;;4979771;28;20205;-74
2022/07/17 08:59:11;;;;;;;3.17;2.30;;;27.40;35.50;;;;;;4996962;28;20185;-73
2022/07/17 09:01:38;;;;;;;2.88;2.28;;;27.40;35.70;;;;;;4979298;28;20205;-74
2022/07/17 09:04:07;;;;;;;2.35;2.15;;;27.50;35.60;;;;;;4979237;28;20203;-73
2022/07/17 09:06:34;;;;;;;2.42;2.22;;;27.50;35.50;;;;;;4979822;28;20556;-73
2022/07/17 09:09:05;;;;;;;2.47;2.28;;;27.50;35.50;;;;;;4978510;28;20228;-74
2022/07/17 09:11:43;;;;;;;2.47;2.20;;;27.50;35.60;;;;;;4979073;28;20201;-73
2022/07/17 09:14:10;;;;;;;3.40;2.25;;;27.50;35.30;;;;;;4979227;28;20216;-73
2022/07/17 09:16:37;;;;;;;2.75;2.45;;;27.60;35.70;;;;;;4979142;28;20197;-73
2022/07/17 09:19:05;;;;;;;2.30;2.10;;;27.60;35.00;;;;;;4977794;28;20276;-73
2022/07/17 09:21:32;;;;;;;2.50;2.30;;;27.60;35.30;;;;;;4978892;28;20684;-73
2022/07/17 09:24:00;;;;;;;2.53;2.20;;;27.70;33.40;;;;;;4978786;28;20201;-72
2022/07/17 09:26:27;;;;;;;2.17;2.05;;;27.80;32.90;;;;;;4978674;28;20263;-72
2022/07/17 09:28:54;;;;;;;4.20;2.10;;;27.80;34.10;;;;;;4995964;28;20303;-73
2022/07/17 09:31:27;;;;;;;2.30;2.05;;;27.60;34.70;;;;;;4978788;28;20255;-72
2022/07/17 09:33:54;;;;;;;2.85;2.13;;;27.70;33.70;;;;;;4979137;28;20201;-73
2022/07/17 09:36:23;;;;;;;2.20;2.05;;;27.70;34.50;;;;;;4979073;28;20193;-72
2022/07/17 09:38:55;;;;;;;2.08;1.88;;;27.60;33.10;;;;;;4978632;28;20208;-72
2022/07/17 09:41:23;;;;;;;2.00;1.88;;;27.60;33.20;;;;;;4978637;28;20569;-72
2022/07/17 09:43:52;;;;;;;3.83;2.00;;;27.60;34.20;;;;;;4995987;28;20196;-72
2022/07/17 09:46:20;;;;;;;3.45;1.92;;;27.60;33.80;;;;;;4978587;28;20205;-73
2022/07/17 09:48:48;;;;;;;2.60;2.03;;;27.60;33.70;;;;;;4978267;28;20222;-72
2022/07/17 09:51:17;;;;;;;3.42;2.00;;;27.50;34.00;;;;;;4996126;28;20199;-73
2022/07/17 09:53:46;;;;;;;1.90;1.80;;;27.50;34.50;;;;;;4978604;28;20204;-73
2022/07/17 09:56:14;;;;;;;2.13;1.88;;;27.50;33.40;;;;;;4996106;28;20216;-73
2022/07/17 09:58:40;;;;;;;3.03;1.80;;;27.40;33.50;;;;;;4978345;28;20212;-73
2022/07/17 10:01:07;;;;;;;2.35;2.00;;;27.50;34.30;;;;;;4978465;28;20662;-72
2022/07/17 10:03:34;;;;;;;2.10;1.90;;;27.50;33.70;;;;;;4978548;28;20241;-73
2022/07/17 10:06:02;;;;;;;2.00;1.90;;;27.50;33.70;;;;;;4978659;28;20193;-73
2022/07/17 10:08:29;;;;;;;1.95;1.85;;;27.50;33.90;;;;;;4979345;28;20224;-72
2022/07/17 10:10:57;;;;;;;1.75;1.65;;;27.40;34.20;;;;;;4978853;28;20239;-72
2022/07/17 10:13:24;;;;;;;2.20;2.00;;;27.40;34.40;;;;;;4996053;28;20658;-72
2022/07/17 10:15:51;;;;;;;2.35;2.00;;;27.30;33.70;;;;;;4978291;28;20208;-72
2022/07/17 10:18:18;;;;;;;1.98;1.83;;;27.30;34.50;;;;;;4995438;28;20208;-73
2022/07/17 10:20:45;;;;;;;2.38;2.00;;;27.30;33.70;;;;;;4994602;28;20236;-73
2022/07/17 10:23:13;;;;;;;2.60;1.80;;;27.30;33.90;;;;;;4977182;28;20197;-73
2022/07/17 10:25:40;;;;;;;2.28;2.08;;;27.20;34.20;;;;;;4977754;28;20211;-72
2022/07/17 10:28:08;;;;;;;1.95;1.75;;;27.20;33.20;;;;;;4977584;28;20715;-72
2022/07/17 10:30:35;;;;;;;2.65;1.80;;;27.20;32.80;;;;;;4977788;28;20280;-73
2022/07/17 10:33:06;;;;;;;1.85;1.75;;;27.30;33.70;;;;;;4977570;28;20203;-73
2022/07/17 10:35:44;;;;;;;2.20;2.00;;;27.50;33.30;;;;;;4977510;28;20317;-73
2022/07/17 10:38:11;;;;;;;1.80;1.70;;;27.60;33.10;;;;;;4977392;28;20262;-73
2022/07/17 10:40:38;;;;;;;1.80;1.70;;;27.70;32.90;;;;;;4977427;28;20205;-73
2022/07/17 10:43:06;;;;;;;2.10;1.90;;;27.70;33.10;;;;;;4994899;28;20203;-72
2022/07/17 10:45:35;;;;;;;1.90;1.80;;;27.70;32.80;;;;;;4977322;28;20678;-73
2022/07/17 10:48:03;;;;;;;2.00;1.90;;;27.70;32.60;;;;;;4977157;28;20252;-73
2022/07/17 10:50:34;;;;;;;1.95;1.80;;;27.70;32.50;;;;;;4977365;28;20200;-73
2022/07/17 10:53:07;;;;;;;2.08;1.98;;;27.70;32.80;;;;;;4977088;28;20204;-73
2022/07/17 10:55:35;;;;;;;2.10;1.90;;;27.70;32.90;;;;;;4995051;28;20185;-72
2022/07/17 10:58:01;;;;;;;2.60;1.80;;;27.60;32.80;;;;;;4994676;28;20629;-73
2022/07/17 11:00:28;;;;;;;3.25;1.90;;;27.60;33.10;;;;;;4977133;28;20267;-72
2022/07/17 11:02:57;;;;;;;1.77;1.67;;;27.60;32.80;;;;;;4994560;28;20192;-72
2022/07/17 11:05:23;;;;;;;1.88;1.77;;;27.60;32.80;;;;;;4976902;28;20208;-73
2022/07/17 11:07:55;;;;;;;1.80;1.70;;;27.50;32.70;;;;;;4976584;28;20216;-73
2022/07/17 11:10:22;;;;;;;1.88;1.70;;;27.50;32.80;;;;;;4994442;28;20267;-73
2022/07/17 11:12:51;;;;;;;1.92;1.83;;;27.50;32.80;;;;;;4976510;28;20201;-73
2022/07/17 11:15:18;;;;;;;1.98;1.80;;;27.50;32.90;;;;;;4976688;28;20232;-73
2022/07/17 11:17:46;;;;;;;2.10;1.90;;;27.50;32.80;;;;;;4976525;28;20240;-73
2022/07/17 11:20:15;;;;;;;2.03;1.90;;;27.50;32.20;;;;;;4994056;28;20209;-73
2022/07/17 11:22:42;;;;;;;2.95;1.83;;;27.40;32.70;;;;;;4976539;28;20201;-73
2022/07/17 11:25:11;;;;;;;2.03;1.92;;;27.50;32.80;;;;;;4976294;28;20204;-73
2022/07/17 11:27:38;;;;;;;2.03;1.83;;;27.40;32.90;;;;;;4976503;28;20248;-72
2022/07/17 11:30:06;;;;;;;1.98;1.83;;;27.40;32.90;;;;;;4976343;28;20204;-73
2022/07/17 11:32:33;;;;;;;2.20;2.00;;;27.40;32.70;;;;;;4977757;28;20212;-72
2022/07/17 11:35:00;;;;;;;1.75;1.65;;;27.40;32.40;;;;;;4976506;28;20228;-72
2022/07/17 11:37:31;;;;;;;2.47;1.92;;;27.40;32.70;;;;;;4976419;28;20231;-73
2022/07/17 11:39:58;;;;;;;2.00;1.90;;;27.40;32.70;;;;;;5038570;23;20231;-65
2022/07/17 11:42:25;;;;;;;3.95;1.90;;;27.40;32.70;;;;;;4976427;28;20225;-65
2022/07/17 11:44:54;;;;;;;3.25;2.10;;;27.30;33.70;;;;;;4976577;28;20197;-66
2022/07/17 11:47:21;;;;;;;2.67;2.10;;;27.30;33.20;;;;;;4976685;28;20652;-67
2022/07/17 11:49:48;;;;;;;1.90;1.80;;;27.30;32.70;;;;;;4977653;28;20240;-67
2022/07/17 11:52:16;;;;;;;3.10;1.92;;;27.30;33.20;;;;;;4977597;28;20227;-66
2022/07/17 11:54:49;;;;;;;3.30;2.10;;;27.30;33.40;;;;;;4976672;28;20201;-66
2022/07/17 11:57:17;;;;;;;2.13;1.92;;;27.30;33.90;;;;;;4976452;28;20211;-65
2022/07/17 11:59:44;;;;;;;2.85;1.92;;;27.30;33.00;;;;;;4993951;28;20213;-66
2022/07/17 12:02:11;;;;;;;2.20;1.80;;;27.30;33.60;;;;;;4976345;28;20200;-66
2022/07/17 12:04:49;;;;;;;4.00;2.20;;;27.30;33.30;;;;;;4976310;28;20204;-66
2022/07/17 12:07:16;;;;;;;2.33;2.08;;;27.30;34.10;;;;;;4994003;28;20179;-67
2022/07/17 12:09:43;;;;;;;2.30;2.10;;;27.30;34.50;;;;;;4976137;28;20228;-66
2022/07/17 12:12:20;;;;;;;2.17;1.98;;;27.20;33.50;;;;;;4993937;28;20189;-66
2022/07/17 12:14:50;;;;;;;4.85;2.00;;;27.20;34.00;;;;;;4994121;28;20177;-66
2022/07/17 12:17:17;;;;;;;2.35;1.90;;;27.20;34.50;;;;;;4977069;28;20219;-66
2022/07/17 12:19:44;;;;;;;2.00;1.90;;;27.20;33.60;;;;;;4976419;28;20220;-66
2022/07/17 12:22:11;;;;;;;1.98;1.75;;;27.10;33.50;;;;;;4993843;28;20189;-66
2022/07/17 12:24:40;;;;;;;1.90;1.80;;;27.10;33.80;;;;;;4976412;28;20197;-66
2022/07/17 12:27:07;;;;;;;2.00;1.90;;;27.00;33.30;;;;;;4976444;28;20205;-66
2022/07/17 12:29:36;;;;;;;2.75;1.90;;;27.10;33.20;;;;;;4975993;28;20217;-66
2022/07/17 12:32:05;;;;;;;2.15;1.95;;;27.10;33.10;;;;;;4993440;28;20240;-66
2022/07/17 12:34:32;;;;;;;2.08;1.90;;;27.00;32.50;;;;;;4993357;28;20204;-66
2022/07/17 12:36:59;;;;;;;2.60;2.00;;;27.00;33.50;;;;;;4993713;28;20197;-67
2022/07/17 12:39:26;;;;;;;2.20;1.90;;;26.90;32.70;;;;;;4976563;28;20203;-66
2022/07/17 12:41:53;;;;;;;3.15;1.83;;;27.00;33.00;;;;;;4993338;28;20193;-67
2022/07/17 12:44:20;;;;;;;1.88;1.77;;;26.90;32.70;;;;;;4976136;28;20190;-66
2022/07/17 12:46:49;;;;;;;2.35;1.90;;;26.90;33.00;;;;;;4979286;28;20283;-66
2022/07/17 12:49:16;;;;;;;2.20;2.00;;;27.00;32.50;;;;;;4979352;28;20256;-66